Tiempo atmosférico en la estación meteorológica de Nuñomoral, Cáceres (475 m.)



Fecha
DESCASC
Temp. máxima en grados centígrados (hora)
DESCASC
Temp. mínima en grados centígrados (hora)
DESCASC
Temp. media en grados centígrados
DESCASC
Racha de viento máxima en m/sg (hora)
DESCASC
Velocidad máxima media en intervalos de 10 minutos(hora)
DESCASC
Precipitaciones diarias en mm
DESCASC
Precipitaciones de 00:00 a 06:00 en mm
DESCASC
Precipitaciones de 06:00 a 12:00 en mm
DESCASC
Precipitaciones de 12:00 a 18:00 en mm
DESCASC
Precipitaciones de 18:00 a 24:00 en mm
DESCASC
20-09-2018 32.6 (17:40) 11.5 (08:30) 22 9.72 (15:40) 3.61 (15:30) 0 0 0 0 0
19-09-2018 32.1 (18:20) 12.4 (08:20) 22.2 8.61 (15:00) 4.44 (13:00) 0 0 0 0 0
18-09-2018 30.9 (18:40) 14.3 (08:40) 22.6 8.61 (15:40) 3.89 (15:40) 0 0 0 0 0
17-09-2018 32 (17:30) 12.5 (08:20) 22.3 7.78 (14:30) 4.44 (14:20) 0 0 0 0 0
16-09-2018 32.3 (16:00) 12.6 (00:00) 22.4 12.5 (17:00) 5.56 (16:50) 0 0 0 0 0
15-09-2018 32.7 (16:10) 13.4 (00:00) 23.1 13.33 (00:50) 5.28 (16:40) 2.6 0 0 2.6 0
14-09-2018 33.1 (14:20) 14.5 (00:00) 23.8 9.17 (16:20) 3.33 (15:50) 5.2 0 0 5.2 0
13-09-2018 33.9 (16:10) 13.9 (00:00) 23.9 6.94 (23:30) 3.61 (18:50) 0 0 0 0 0
12-09-2018 31.8 (18:20) 12.2 (00:00) 22 6.67 (16:10) 3.89 (16:20) 0 0 0 0 0
11-09-2018 32.7 (16:30) 11.5 (00:00) 22.1 7.78 (18:30) 3.89 (18:20) 0 0 0 0 0
10-09-2018 31.8 (17:50) 11.2 (00:00) 21.5 6.39 (15:40) 4.17 (16:40) 0 0 0 0 0
09-09-2018 29.8 (17:20) 11.4 (00:00) 20.6 7.22 (14:40) 3.33 (12:10) 0.2 0.2 0 0 0
08-09-2018 28.6 (17:30) 12.3 (00:00) 20.5 8.89 (16:30) 4.72 (16:30) 0.2 0 0 0 0.2
07-09-2018 29.9 (18:00) 10.3 (00:00) 20.1 7.22 (23:30) 2.22 (16:00) 1.2 0 0 0 1.2
06-09-2018 26.9 (13:20) 11.6 (00:00) 19.3 7.5 (13:50) 4.72 (14:00) 3.2 0 0 3.2 0
05-09-2018 25.7 (17:10) 12.7 (00:00) 19.2 7.78 (17:00) 4.17 (17:00) 0 0 0 0 0
04-09-2018 28.6 (17:30) 13.4 (00:00) 21 8.89 (16:30) 5 (16:30) 0 0 0 0 0
03-09-2018 29.8 (17:30) 16.6 (00:00) 23.2 8.06 (12:10) 4.72 (12:10) 0.2 0.2 0 0 0
02-09-2018 35.6 (16:30) 15.6 (00:00) 25.6 12.5 (21:30) 4.17 (21:30) 2.2 0 0 0 2.2
01-09-2018 36.5 (16:20) 13.6 (00:00) 25.1 7.22 (15:40) 3.89 (15:40) 0 0 0 0 0
31-08-2018 35.8 (18:00) 14 (00:00) 24.9 6.67 (14:50) 3.61 (14:50) 0 0 0 0 0
30-08-2018 34.2 (17:20) 14.8 (00:00) 24.5 10.83 (00:30) 4.72 (00:30) 0 0 0 0 0
29-08-2018 32.3 (18:20) 18.1 (00:00) 25.2 9.17 (07:40) 5.56 (10:20) 0 0 0 0 0
28-08-2018 31.4 (17:20) 15.5 (00:00) 23.4 8.33 (16:40) 4.44 (23:30) 0 0 0 0 0
27-08-2018 35.4 (18:30) 11 (00:00) 23.2 7.22 (14:50) 3.89 (14:50) 0 0 0 0 0
26-08-2018 35 (18:20) 10.7 (00:00) 22.8 11.67 (17:50) 3.61 (13:50) 0 0 0 0 0
25-08-2018 33 (17:10) 12.9 (00:00) 22.9 8.61 (04:00) 4.17 (14:10) 0 0 0 0 0
24-08-2018 34.6 (17:00) 15.2 (00:00) 24.9 8.33 (15:10) 4.44 (15:10) 0 0 0 0 0
23-08-2018 34.9 (17:20) 13 (00:00) 24 7.5 (15:30) 4.72 (15:50) 0.2 0.2 0 0 0

Gráficas

Temp. máximas Temp. mínimas Temp. medias Precipitaciones Rachas de viento máximas Velocidades máximas media en intervalos de 10 minutos

Datos horarios

Fecha y hora oficial Temperatura (ºC) Velocidad del viento (km/h) Dirección del viento Racha (km/h) Dirección de racha Precipitación (mm) Presión (hPa) Tendencia (hPa) Humedad (%)
2018-09-21 23:00:00 19.8 4 Noroeste 11 Oeste 0 -- -- 46
2018-09-21 22:00:00 21.8 4 Noroeste 9 Noroeste 0 -- -- 42
2018-09-21 21:00:00 24.6 4 Oeste 19 Noroeste 0 -- -- 37
2018-09-21 20:00:00 28.2 9 Oeste 18 Noroeste 0 -- -- 33
2018-09-21 19:00:00 30.5 8 Noroeste 32 Noroeste 0 -- -- 29
2018-09-21 18:00:00 30.6 12 Oeste 25 Oeste 0 -- -- 28
2018-09-21 17:00:00 31 14 Oeste 26 Oeste 0 -- -- 28
2018-09-21 16:00:00 31.4 11 Sudoeste 21 Sudoeste 0 -- -- 30
2018-09-21 15:00:00 31.3 6 Sur 17 Oeste 0 -- -- 29
2018-09-21 14:00:00 29.3 10 Oeste 25 Oeste 0 -- -- 34
2018-09-21 13:00:00 28.8 3 Sur 13 Este 0 -- -- 33
2018-09-21 12:00:00 27 5 Este 11 Este 0 -- -- 35
2018-09-21 11:00:00 23.4 9 Este 16 Este 0 -- -- 42
2018-09-21 10:00:00 17.5 2 Este 8 Este 0 -- -- 62
2018-09-21 09:00:00 13.6 0 Calma 9 Norte 0 -- -- 71
2018-09-21 08:00:00 14 3 Norte 10 Norte 0 -- -- 66
2018-09-21 07:00:00 14.5 4 Noroeste 9 Norte 0 -- -- 66
2018-09-21 06:00:00 15.4 5 Norte 13 Oeste 0 -- -- 63
2018-09-21 05:00:00 17 5 Noroeste 14 Sudoeste 0 -- -- 56
2018-09-21 04:00:00 17.2 7 Noroeste 11 Oeste -- -- -- 60
2018-09-21 03:00:00 19.3 7 Oeste 20 Sudoeste 0 -- -- 55
2018-09-21 02:00:00 21.6 9 Sudoeste 26 Oeste 0 -- -- 51
2018-09-21 01:00:00 22.7 9 Oeste 24 Sudoeste 0 -- -- 48
2018-09-21 00:00:00 24.2 9 Sudoeste 27 Sudoeste 0 -- -- 43
2018-09-20 23:00:00 24.4 8 Oeste 21 Noroeste 0 -- -- 41
2018-09-20 22:00:00 25.8 4 Noroeste 24 Oeste 0 -- -- 39
2018-09-20 21:00:00 26.3 7 Oeste 14 Oeste 0 -- -- 41
2018-09-20 20:00:00 29.7 5 Oeste 15 Sur 0 -- -- 35
2018-09-20 19:00:00 32.1 5 Sur 21 Oeste 0 -- -- 30
2018-09-20 18:00:00 32.6 6 Sudoeste 26 Oeste 0 -- -- 28
2018-09-20 17:00:00 31.9 8 Sudeste 29 Oeste 0 -- -- 31
2018-09-20 16:00:00 32 9 Sudoeste 35 Sudoeste 0 -- -- 31
2018-09-20 15:00:00 31.9 10 Sudoeste 24 Oeste 0 -- -- 32
2018-09-20 14:00:00 31.2 9 Sudoeste 26 Oeste 0 -- -- 31
2018-09-20 13:00:00 30.1 4 Oeste 16 Sudoeste 0 -- -- 31
2018-09-20 12:00:00 26 4 Sudeste 10 Este 0 -- -- 42
2018-09-20 11:00:00 21.5 5 Este 10 Este 0 -- -- 52
2018-09-20 10:00:00 15.9 0 Calma 3 Sudeste 0 -- -- 71
2018-09-20 09:00:00 12 0 Calma 4 Norte 0 -- -- 86
2018-09-20 08:00:00 11.9 2 Norte 5 Norte 0 -- -- 83
2018-09-20 07:00:00 12 0 Calma 4 Norte 0 -- -- 83
2018-09-20 06:00:00 12.4 2 Noroeste 4 Norte 0 -- -- 83
2018-09-20 05:00:00 12.6 0 Calma 4 Noroeste 0 -- -- 81
2018-09-20 04:00:00 13.1 0 Calma 6 Este 0 -- -- 79
2018-09-20 03:00:00 13.7 0 Calma 3 Este 0 -- -- 74
2018-09-20 02:00:00 15.5 3 Nordeste 8 Norte 0 -- -- 65
2018-09-20 01:00:00 16.3 4 Norte 11 Norte 0 -- -- 59
2018-09-20 00:00:00 16.8 5 Noroeste 9 Noroeste 0 -- -- 56
2018-09-19 23:00:00 17.9 4 Norte 7 Norte 0 -- -- 54
2018-09-19 22:00:00 20 4 Norte 7 Norte 0 -- -- 48
2018-09-19 21:00:00 23.4 2 Noroeste 8 Sudoeste 0 -- -- 41
2018-09-19 20:00:00 28.3 4 Noroeste 13 Oeste 0 -- -- 31
2018-09-19 19:00:00 31.8 4 Sudoeste 15 Sudoeste 0 -- -- 26
2018-09-19 18:00:00 31.9 7 Sudoeste 21 Oeste 0 -- -- 25
2018-09-19 17:00:00 31 12 Oeste 27 Sudoeste 0 -- -- 27
2018-09-19 16:00:00 31.4 10 Sudoeste 29 Oeste 0 -- -- 29
2018-09-19 15:00:00 30.7 13 Oeste 31 Oeste 0 -- -- 33
2018-09-19 14:00:00 29.7 9 Sur 25 Sudoeste 0 -- -- 35
2018-09-19 13:00:00 28.9 16 Este 23 Sudeste 0 -- -- 37
2018-09-19 12:00:00 26.3 8 Este 14 Este 0 -- -- 44
2018-09-19 11:00:00 22.3 5 Este 8 Este 0 -- -- 53
2018-09-19 10:00:00 17 0 Calma 4 Norte 0 -- -- 76
2018-09-19 09:00:00 12.8 0 Calma 4 Norte 0 -- -- 89
2018-09-19 08:00:00 12.7 0 Calma 5 Noroeste 0 -- -- 87
2018-09-19 07:00:00 13.5 3 Noroeste 5 Norte 0 -- -- 85
2018-09-19 06:00:00 14 2 Norte 5 Noroeste 0 -- -- 82
2018-09-19 05:00:00 14.7 3 Norte 5 Norte 0 -- -- 81
2018-09-19 04:00:00 15.8 2 Noroeste 5 Noroeste 0 -- -- 77
2018-09-19 03:00:00 17 2 Noroeste 6 Norte 0 -- -- 72
2018-09-19 02:00:00 18.4 3 Noroeste 10 Sudoeste 0 -- -- 66
2018-09-19 01:00:00 20 6 Sudoeste 15 Oeste 0 -- -- 59
2018-09-19 00:00:00 19.8 8 Oeste 11 Sudoeste 0 -- -- 60
2018-09-18 23:00:00 20.5 4 Noroeste 8 Norte 0 -- -- 60
2018-09-18 22:00:00 23 3 Noroeste 9 Oeste 0 -- -- 55
2018-09-18 21:00:00 24.5 4 Oeste 8 Oeste 0 -- -- 51
2018-09-18 20:00:00 28.7 0 Calma 8 Sudoeste 0 -- -- 44
2018-09-18 19:00:00 30.4 4 Noroeste 21 Sudoeste 0 -- -- 34
2018-09-18 18:00:00 30 11 Sudoeste 20 Sudoeste 0 -- -- 34
2018-09-18 17:00:00 28.8 5 Oeste 18 Oeste 0 -- -- 42
2018-09-18 16:00:00 30 9 Noroeste 31 Sudoeste 0 -- -- 39
2018-09-18 15:00:00 30.2 12 Oeste 24 Este 0 -- -- 38
2018-09-18 14:00:00 29.8 8 Sudeste 23 Este 0 -- -- 40
2018-09-18 13:00:00 28.2 6 Sudeste 15 Este 0 -- -- 44
2018-09-18 12:00:00 26.2 9 Este 15 Este 0 -- -- 48
2018-09-18 11:00:00 22.8 4 Este 8 Este 0 -- -- 58
2018-09-18 10:00:00 17.8 0 Calma 4 Sudeste 0 -- -- 78
2018-09-18 09:00:00 14.7 0 Calma 5 Noroeste 0 -- -- 89
2018-09-18 08:00:00 14.7 2 Norte 7 Noroeste 0 -- -- 86
2018-09-18 07:00:00 15.2 0 Calma 6 Este 0 -- -- 85
2018-09-18 06:00:00 15.2 0 Calma 7 Norte 0 -- -- 84
2018-09-18 05:00:00 15.6 0 Calma 6 Norte 0 -- -- 82
2018-09-18 04:00:00 16.6 4 Noroeste 8 Oeste 0 -- -- 78
2018-09-18 03:00:00 17 0 Calma 4 Norte 0 -- -- 78
2018-09-18 02:00:00 18 0 Calma 9 Oeste 0 -- -- 72
2018-09-18 01:00:00 19.3 5 Noroeste 9 Norte 0 -- -- 66
2018-09-18 00:00:00 19.6 5 Noroeste 10 Noroeste 0 -- -- 65
2018-09-17 23:00:00 20.7 4 Noroeste 9 Oeste 0 -- -- 61
2018-09-17 22:00:00 23.3 4 Oeste 8 Oeste 0 -- -- 52
2018-09-17 21:00:00 26.2 6 Oeste 27 Oeste 0 -- -- 47
2018-09-17 20:00:00 28.8 7 Oeste 18 Oeste 0 -- -- 37
2018-09-17 19:00:00 31.4 7 Oeste 18 Sudeste 0 -- -- 29
2018-09-17 18:00:00 31.6 9 Sudoeste 26 Sudoeste 0 -- -- 29
2018-09-17 17:00:00 31.4 12 Sudoeste 27 Sudoeste 0 -- -- 30
2018-09-17 16:00:00 31.5 12 Sur 28 Sudeste 0 -- -- 30
2018-09-17 15:00:00 30.5 11 Sudoeste 28 Oeste 0 -- -- 33
2018-09-17 14:00:00 29.8 14 Sudoeste 23 Sudoeste 0 -- -- 33
2018-09-17 13:00:00 29.4 7 Este 17 Este 0 -- -- 34
2018-09-17 12:00:00 26.5 3 Sudeste 9 Este 0 -- -- 45
2018-09-17 11:00:00 22 3 Este 6 Sudeste 0 -- -- 60
2018-09-17 10:00:00 17 0 Calma 2 Este 0 -- -- 79
2018-09-17 09:00:00 13 0 Calma 4 Norte 0 -- -- 93
2018-09-17 08:00:00 12.8 0 Calma 6 Norte 0 -- -- 90
2018-09-17 07:00:00 13.3 2 Norte 6 Noroeste 0 -- -- 88
2018-09-17 06:00:00 13.2 0 Calma 4 Norte 0 -- -- 89
2018-09-17 05:00:00 14.2 2 Noroeste 6 Norte 0 -- -- 86
2018-09-17 04:00:00 14.5 3 Norte 5 Noroeste 0 -- -- 86
2018-09-17 03:00:00 15.2 2 Noroeste 7 Noroeste 0 -- -- 83
2018-09-17 02:00:00 16 0 Calma 6 Norte 0 -- -- 80
2018-09-17 01:00:00 16.8 3 Norte 6 Norte 0 -- -- 77
2018-09-17 00:00:00 17.8 3 Norte 7 Norte 0 -- -- 73
2018-09-16 23:00:00 18.8 4 Norte 6 Norte 0 -- -- 70
2018-09-16 22:00:00 20.2 5 Norte 8 Noroeste 0 -- -- 64
2018-09-16 21:00:00 22.7 4 Oeste 9 Sudoeste 0 -- -- 62
2018-09-16 20:00:00 24.7 5 Oeste 14 Sudoeste 0 -- -- 54
2018-09-16 19:00:00 25.6 7 Sudoeste 14 Sudoeste 0 -- -- 47
2018-09-16 18:00:00 25.7 9 Sudoeste 29 Sudoeste 0 -- -- 46
2018-09-16 17:00:00 26.1 19 Oeste 45 Oeste 0 -- -- 45
2018-09-16 16:00:00 32.3 5 Sudeste 19 Este 0 -- -- 32
2018-09-16 15:00:00 30.9 12 Este 23 Este 0 -- -- 34
2018-09-16 14:00:00 29.9 10 Este 20 Este 0 -- -- 40
2018-09-16 13:00:00 28.1 9 Este 14 Este 0 -- -- 44
2018-09-16 12:00:00 24.6 6 Este 10 Este 0 -- -- 58
2018-09-16 11:00:00 20.4 3 Sudeste 8 Sudeste 0 -- -- 74
2018-09-16 10:00:00 15.7 0 Calma 4 Norte 0 -- -- 95
2018-09-16 09:00:00 13.1 0 Calma 3 Nordeste 0 -- -- 97
2018-09-16 08:00:00 12.7 0 Calma 5 Este 0 -- -- 96
2018-09-16 07:00:00 13.2 2 Este 5 Este 0 -- -- 96
2018-09-16 06:00:00 13.5 2 Oeste 7 Norte 0 -- -- 95
2018-09-16 05:00:00 14.1 3 Noroeste 6 Noroeste 0 -- -- 95
2018-09-16 04:00:00 14.4 0 Calma 5 Norte 0 -- -- 93
2018-09-16 03:00:00 15.3 3 Noroeste 5 Noroeste 0 -- -- 93
2018-09-16 02:00:00 15.9 0 Calma 6 Norte 0 -- -- 92
2018-09-16 01:00:00 16.9 3 Noroeste 6 Norte 0 -- -- 92
2018-09-16 00:00:00 17.7 4 Norte 7 Oeste 0 -- -- 91
2018-09-15 23:00:00 17.8 3 Noroeste 8 Noroeste 0 -- -- 91
2018-09-15 22:00:00 18.5 2 Noroeste 5 Norte 0 -- -- 90
2018-09-15 21:00:00 19.6 3 Norte 10 Norte 0 -- -- 88
2018-09-15 20:00:00 21.2 0 Calma 10 Noroeste 0 -- -- 87
2018-09-15 19:00:00 21.2 4 Norte 9 Norte 0 -- -- 87
2018-09-15 18:00:00 21.2 4 Noroeste 16 Norte 0 -- -- 83
2018-09-15 17:00:00 21.9 6 Oeste 33 Oeste 2.6 -- -- 83
2018-09-15 16:00:00 32.4 7 Sur 26 Oeste 0 -- -- 32
2018-09-15 15:00:00 31.3 8 Este 19 Este 0 -- -- 35
2018-09-15 14:00:00 30.1 4 Sur 16 Este 0 -- -- 36
2018-09-15 13:00:00 28.4 6 Este 11 Este 0 -- -- 39
2018-09-15 12:00:00 25.8 4 Este 10 Este 0 -- -- 48
2018-09-15 11:00:00 22 7 Este 9 Este 0 -- -- 63
2018-09-15 10:00:00 17.5 0 Calma 10 Norte 0 -- -- 83
2018-09-15 09:00:00 14.2 5 Noroeste 8 Noroeste 0 -- -- 93
2018-09-15 08:00:00 13.4 0 Calma 4 Norte 0 -- -- 93
2018-09-15 07:00:00 14.2 0 Calma 8 Noroeste 0 -- -- 91
2018-09-15 06:00:00 14.8 4 Oeste 7 Sudoeste 0 -- -- 91
2018-09-15 05:00:00 15.4 0 Calma 5 Norte 0 -- -- 88
2018-09-15 04:00:00 16.5 0 Calma 4 Noroeste 0 -- -- 85
2018-09-15 03:00:00 18.1 0 Calma 5 Norte 0 -- -- 80
2018-09-15 02:00:00 20.6 0 Calma 26 Oeste 0 -- -- 70
2018-09-15 01:00:00 23 15 Oeste 48 Oeste 0 -- -- 56
2018-09-15 00:00:00 17.5 3 Nordeste 9 Norte 0 -- -- 88
2018-09-14 23:00:00 18.7 5 Noroeste 9 Oeste 0 -- -- 84
2018-09-14 22:00:00 19.9 4 Norte 9 Oeste 0 -- -- 84
2018-09-14 21:00:00 22.1 4 Oeste 9 Oeste 0 -- -- 86
2018-09-14 20:00:00 24.4 0 Calma 6 Este 0 -- -- 80
2018-09-14 19:00:00 25.8 2 Sudeste 5 Norte 0 -- -- 81
2018-09-14 18:00:00 24.5 5 Norte 13 Sudoeste 0.2 -- -- 83
2018-09-14 17:00:00 22 3 Oeste 33 Sur 5 -- -- 85
2018-09-14 16:00:00 30.1 10 Noroeste 28 Noroeste 0 -- -- 35
2018-09-14 15:00:00 32 10 Sudoeste 20 Sudoeste 0 -- -- 28
2018-09-14 14:00:00 32.9 11 Oeste 22 Este 0 -- -- 28
2018-09-14 13:00:00 31.9 7 Este 15 Este 0 -- -- 30
2018-09-14 12:00:00 29.1 6 Este 10 Este 0 -- -- 35
2018-09-14 11:00:00 23.3 0 Calma 4 Noroeste 0 -- -- 48
2018-09-14 10:00:00 19.1 0 Calma 3 Este 0 -- -- 61
2018-09-14 09:00:00 15.1 2 Noroeste 4 Norte 0 -- -- 74
2018-09-14 08:00:00 14.8 0 Calma 4 Oeste 0 -- -- 73
2018-09-14 07:00:00 15.9 0 Calma 5 Norte 0 -- -- 68
2018-09-14 06:00:00 17.9 4 Noroeste 7 Norte 0 -- -- 61
2018-09-14 05:00:00 18.7 4 Norte 10 Norte 0 -- -- 58
2018-09-14 04:00:00 20.8 5 Noroeste 14 Oeste 0 -- -- 51
2018-09-14 03:00:00 21.7 6 Oeste 15 Oeste 0 -- -- 49
2018-09-14 02:00:00 22.8 11 Oeste 22 Sur 0 -- -- 47
2018-09-14 01:00:00 24.1 7 Oeste 17 Oeste 0 -- -- 43
2018-09-14 00:00:00 26.2 9 Oeste 25 Oeste 0 -- -- 40
2018-09-13 23:00:00 22.6 7 Oeste 15 Sudoeste 0 -- -- 48
2018-09-13 22:00:00 24.1 3 Oeste 8 Oeste 0 -- -- 46
2018-09-13 21:00:00 27.5 2 Noroeste 9 Oeste 0 -- -- 38
2018-09-13 20:00:00 31.6 4 Oeste 18 Oeste 0 -- -- 31
2018-09-13 19:00:00 32.8 11 Oeste 24 Sudoeste 0 -- -- 29
2018-09-13 18:00:00 33.3 4 Sudeste 10 Sudoeste 0 -- -- 27
2018-09-13 17:00:00 33.2 2 Sudeste 14 Sudoeste 0 -- -- 29
2018-09-13 16:00:00 33.7 8 Este 17 Este 0 -- -- 27
2018-09-13 15:00:00 32.3 4 Nordeste 19 Sudoeste 0 -- -- 28
2018-09-13 14:00:00 31.6 5 Sudoeste 21 Este 0 -- -- 29
2018-09-13 13:00:00 31.9 10 Este 19 Este 0 -- -- 29
2018-09-13 12:00:00 29.5 12 Este 17 Este 0 -- -- 36
2018-09-13 11:00:00 25 3 Este 6 Este 0 -- -- 44
2018-09-13 10:00:00 19.2 2 Norte 4 Norte 0 -- -- 64
2018-09-13 09:00:00 14.4 3 Noroeste 5 Noroeste 0 -- -- 79
2018-09-13 08:00:00 14 2 Noroeste 4 Norte 0 -- -- 79
2018-09-13 07:00:00 14.8 3 Noroeste 5 Oeste 0 -- -- 77
2018-09-13 06:00:00 15.3 0 Calma 6 Norte 0 -- -- 74
2018-09-13 05:00:00 16.9 4 Norte 7 Norte 0 -- -- 68
2018-09-13 04:00:00 18.2 4 Noroeste 10 Norte 0 -- -- 62
2018-09-13 03:00:00 19.4 5 Norte 14 Sudoeste 0 -- -- 60
2018-09-13 02:00:00 21.4 8 Oeste 15 Sudoeste 0 -- -- 55
2018-09-13 01:00:00 20.2 5 Oeste 11 Noroeste 0 -- -- 59
2018-09-13 00:00:00 20.6 4 Noroeste 8 Noroeste 0 -- -- 58
2018-09-12 23:00:00 22.5 4 Noroeste 7 Oeste 0 -- -- 53
2018-09-12 22:00:00 25 2 Noroeste 5 Noroeste 0 -- -- 48
2018-09-12 21:00:00 27.9 4 Norte 12 Sur 0 -- -- 41
2018-09-12 20:00:00 29.7 3 Sur 10 Oeste 0 -- -- 38
2018-09-12 19:00:00 29.9 4 Oeste 16 Sudoeste 0 -- -- 35
2018-09-12 18:00:00 31.7 9 Sudoeste 21 Este 0 -- -- 31
2018-09-12 17:00:00 31.3 6 Sudeste 24 Oeste 0 -- -- 31
2018-09-12 16:00:00 31.6 10 Sudoeste 23 Sudoeste 0 -- -- 33
2018-09-12 15:00:00 29.2 5 Oeste 20 Oeste 0 -- -- 38
2018-09-12 14:00:00 30.1 8 Este 21 Este 0 -- -- 36
2018-09-12 13:00:00 29.2 10 Este 20 Este 0 -- -- 38
2018-09-12 12:00:00 26.6 12 Este 18 Este 0 -- -- 43
2018-09-12 11:00:00 23 4 Este 9 Este 0 -- -- 53
2018-09-12 10:00:00 17.2 0 Calma 4 Nordeste 0 -- -- 73
2018-09-12 09:00:00 12.8 2 Norte 4 Norte 0 -- -- 88
2018-09-12 08:00:00 12.2 0 Calma 4 Norte 0 -- -- 86
2018-09-12 07:00:00 12.9 2 Norte 4 Norte 0 -- -- 83
2018-09-12 06:00:00 13.2 0 Calma 3 Norte 0 -- -- 82
2018-09-12 05:00:00 14.1 0 Calma 5 Norte 0 -- -- 79
2018-09-12 04:00:00 14.5 2 Norte 4 Norte 0 -- -- 78
2018-09-12 03:00:00 15.6 2 Norte 5 Norte 0 -- -- 73
2018-09-12 02:00:00 16.8 2 Norte 6 Norte 0 -- -- 70
2018-09-12 01:00:00 18.2 3 Noroeste 5 Norte 0 -- -- 64
2018-09-12 00:00:00 19.5 3 Noroeste 5 Noroeste 0 -- -- 63
2018-09-11 23:00:00 21.3 2 Noroeste 6 Norte 0 -- -- 57
2018-09-11 22:00:00 23.8 3 Noroeste 12 Norte 0 -- -- 48
2018-09-11 21:00:00 27.1 4 Sudoeste 25 Oeste 0 -- -- 42
2018-09-11 20:00:00 29.2 10 Sudoeste 22 Sudoeste 0 -- -- 36
2018-09-11 19:00:00 30.6 13 Oeste 28 Sudoeste 0 -- -- 34
2018-09-11 18:00:00 31.1 10 Sudoeste 20 Sudoeste 0 -- -- 34
2018-09-11 17:00:00 31.3 6 Sudeste 23 Este 0 -- -- 29
2018-09-11 16:00:00 31.7 4 Sur 24 Este 0 -- -- 29
2018-09-11 15:00:00 31.1 12 Sur 26 Sudeste 0 -- -- 30
2018-09-11 14:00:00 30.5 8 Sudeste 22 Sudeste 0 -- -- 32
2018-09-11 13:00:00 28.7 6 Sudeste 17 Este 0 -- -- 37
2018-09-11 12:00:00 26.1 9 Este 17 Este 0 -- -- 42
2018-09-11 11:00:00 22.8 6 Este 10 Este 0 -- -- 50
2018-09-11 10:00:00 17.2 0 Calma 3 Norte 0 -- -- 69
2018-09-11 09:00:00 12.1 0 Calma 4 Noroeste 0 -- -- 88
2018-09-11 08:00:00 11.7 0 Calma 4 Norte 0 -- -- 85
2018-09-11 07:00:00 12.2 0 Calma 8 Oeste 0 -- -- 83
2018-09-11 06:00:00 12.5 2 Noroeste 4 Noroeste 0 -- -- 83
2018-09-11 05:00:00 13.1 0 Calma 4 Norte 0 -- -- 81
2018-09-11 04:00:00 13.9 0 Calma 3 Este 0 -- -- 78
2018-09-11 03:00:00 14.9 2 Noroeste 5 Norte 0 -- -- 73
2018-09-11 02:00:00 16.1 3 Norte 7 Noroeste 0 -- -- 69
2018-09-11 01:00:00 17.2 2 Noroeste 5 Noroeste 0 -- -- 64
2018-09-11 00:00:00 18.6 3 Norte 9 Noroeste 0 -- -- 60
2018-09-10 23:00:00 20.2 3 Noroeste 8 Oeste 0 -- -- 53
2018-09-10 22:00:00 21.2 4 Oeste 10 Oeste 0 -- -- 50
2018-09-10 21:00:00 23.6 5 Oeste 9 Oeste 0 -- -- 44
2018-09-10 20:00:00 27.3 5 Oeste 13 Este 0 -- -- 36
2018-09-10 19:00:00 29.8 8 Este 21 Este 0 -- -- 28
2018-09-10 18:00:00 31.6 5 Sur 16 Sur 0 -- -- 27
2018-09-10 17:00:00 30.6 8 Sudeste 23 Este 0 -- -- 29
2018-09-10 16:00:00 31 8 Sudeste 23 Este 0 -- -- 29
2018-09-10 15:00:00 29.2 5 Sudeste 20 Este 0 -- -- 33
2018-09-10 14:00:00 29.6 8 Sur 19 Sudeste 0 -- -- 32
2018-09-10 13:00:00 28.1 5 Sur 17 Este 0 -- -- 38
2018-09-10 12:00:00 25.8 5 Este 13 Este 0 -- -- 44
2018-09-10 11:00:00 22.5 5 Este 9 Este 0 -- -- 56
2018-09-10 10:00:00 16.2 3 Noroeste 4 Noroeste 0 -- -- 76
2018-09-10 09:00:00 12.4 3 Norte 9 Sudoeste 0 -- -- 89
2018-09-10 08:00:00 11.2 0 Calma 5 Este 0 -- -- 90
2018-09-10 07:00:00 11.8 2 Este 6 Norte 0 -- -- 86
2018-09-10 06:00:00 12.7 2 Noroeste 5 Norte 0 -- -- 84
2018-09-10 05:00:00 14 4 Noroeste 8 Norte 0 -- -- 78
2018-09-10 04:00:00 14.8 3 Noroeste 9 Oeste 0 -- -- 73
2018-09-10 03:00:00 15.6 5 Noroeste 10 Oeste 0 -- -- 70
2018-09-10 02:00:00 15.9 5 Norte 9 Norte 0 -- -- 69
2018-09-10 01:00:00 17.2 6 Norte 12 Norte 0 -- -- 64
2018-09-10 00:00:00 17.7 4 Norte 9 Noroeste 0 -- -- 64
2018-09-09 23:00:00 18.7 5 Noroeste 8 Noroeste 0 -- -- 60
2018-09-09 22:00:00 21.4 5 Noroeste 9 Oeste 0 -- -- 53
2018-09-09 21:00:00 23.8 3 Oeste 9 Sudoeste 0 -- -- 47
2018-09-09 20:00:00 25.1 5 Sudoeste 11 Oeste 0 -- -- 45
2018-09-09 19:00:00 26.9 3 Oeste 6 Sur 0 -- -- 40
2018-09-09 18:00:00 28.1 3 Sur 15 Sudeste 0 -- -- 37
2018-09-09 17:00:00 29.2 10 Este 18 Sudeste 0 -- -- 34
2018-09-09 16:00:00 27.6 6 Oeste 14 Sur 0 -- -- 38
2018-09-09 15:00:00 26.8 8 Norte 26 Norte 0 -- -- 38
2018-09-09 14:00:00 27.2 6 Sudeste 18 Este 0 -- -- 38
2018-09-09 13:00:00 24.3 10 Este 19 Este 0 -- -- 46
2018-09-09 12:00:00 23.4 11 Este 17 Este 0 -- -- 49
2018-09-09 11:00:00 19.9 2 Este 5 Sudeste 0 -- -- 60
2018-09-09 10:00:00 15.1 0 Calma 4 Este 0 -- -- 83
2018-09-09 09:00:00 12.7 3 Norte 9 Oeste 0 -- -- 91
2018-09-09 08:00:00 11.5 0 Calma 4 Sudeste 0 -- -- 92
2018-09-09 07:00:00 11.8 0 Calma 6 Norte 0 -- -- 90
2018-09-09 06:00:00 12.3 0 Calma 5 Noroeste 0 -- -- 89
2018-09-09 05:00:00 12.9 3 Norte 6 Nordeste 0 -- -- 87
2018-09-09 04:00:00 14.3 4 Noroeste 6 Norte 0 -- -- 83
2018-09-09 03:00:00 15.7 3 Norte 7 Norte 0 -- -- 80
2018-09-09 02:00:00 17.1 3 Noroeste 12 Este 0 -- -- 75
2018-09-09 01:00:00 17.9 2 Norte 18 Este 0.2 -- -- 71
2018-09-09 00:00:00 18.4 7 Nordeste 18 Sur 0 -- -- 69
2018-09-08 23:00:00 18.6 9 Nordeste 22 Oeste 0.2 -- -- 74
2018-09-08 22:00:00 21.8 3 Norte 18 Este 0 -- -- 58
2018-09-08 21:00:00 21.8 3 Nordeste 12 Norte 0 -- -- 63
2018-09-08 20:00:00 23.4 0 Calma 9 Sudoeste 0 -- -- 59
2018-09-08 19:00:00 24.8 5 Sudoeste 10 Oeste 0 -- -- 53
2018-09-08 18:00:00 27.1 6 Sur 30 Sudeste 0 -- -- 41
2018-09-08 17:00:00 28.1 6 Sudoeste 32 Este 0 -- -- 39
2018-09-08 16:00:00 27.3 10 Este 25 Este 0 -- -- 39
2018-09-08 15:00:00 27.2 9 Sudeste 20 Este 0 -- -- 40
2018-09-08 14:00:00 25.2 5 Este 21 Este 0 -- -- 45
2018-09-08 13:00:00 21.8 4 Oeste 11 Este 0 -- -- 58
2018-09-08 12:00:00 17.1 10 Este 17 Este 0 -- -- 88
2018-09-08 11:00:00 14.2 3 Noroeste 11 Sudoeste 0 -- -- 96
2018-09-08 10:00:00 13.1 0 Calma 3 Nordeste 0 -- -- 95
2018-09-08 09:00:00 13 0 Calma 6 Norte 0 -- -- 95
2018-09-08 08:00:00 13.3 3 Noroeste 9 Sudoeste 0 -- -- 95
2018-09-08 07:00:00 13.3 4 Oeste 9 Noroeste 0 -- -- 96
2018-09-08 06:00:00 12.3 3 Nordeste 6 Norte 0 -- -- 95
2018-09-08 05:00:00 12.8 4 Norte 7 Noroeste 0 -- -- 94
2018-09-08 04:00:00 13.4 5 Norte 7 Norte 0 -- -- 93
2018-09-08 03:00:00 14.2 4 Norte 8 Norte 0 -- -- 92
2018-09-08 02:00:00 15.2 4 Noroeste 8 Norte 0 -- -- 91
2018-09-08 01:00:00 16.6 4 Oeste 15 Sudoeste 0 -- -- 88
2018-09-08 00:00:00 17.1 5 Sudoeste 26 Sudeste 1.2 -- -- 84
2018-09-07 23:00:00 19.2 2 Este 8 Oeste 0 -- -- 60
2018-09-07 22:00:00 20 4 Noroeste 8 Norte 0 -- -- 54
2018-09-07 21:00:00 23.1 0 Calma 7 Norte 0 -- -- 49
2018-09-07 20:00:00 27.9 2 Noroeste 7 Sudeste 0 -- -- 36
2018-09-07 19:00:00 29.6 4 Nordeste 12 Oeste 0 -- -- 26
2018-09-07 18:00:00 29.9 3 Oeste 14 Noroeste 0 -- -- 26
2018-09-07 17:00:00 28.9 3 Este 17 Norte 0 -- -- 28
2018-09-07 16:00:00 28.5 8 Norte 17 Norte 0 -- -- 28
2018-09-07 15:00:00 28 5 Este 15 Nordeste 0 -- -- 28
2018-09-07 14:00:00 28.1 6 Sudeste 14 Este 0 -- -- 28
2018-09-07 13:00:00 26.8 6 Este 13 Sudeste 0 -- -- 39
2018-09-07 12:00:00 23.6 3 Este 7 Sudeste 0 -- -- 50
2018-09-07 11:00:00 19.4 0 Calma 3 Norte 0 -- -- 69
2018-09-07 10:00:00 15.4 2 Norte 4 Norte 0 -- -- 92
2018-09-07 09:00:00 11.3 3 Noroeste 5 Noroeste 0 -- -- 97
2018-09-07 08:00:00 10.5 0 Calma 4 Norte 0 -- -- 95
2018-09-07 07:00:00 11 0 Calma 5 Noroeste 0 -- -- 94
2018-09-07 06:00:00 11.6 3 Noroeste 5 Oeste 0 -- -- 95
2018-09-07 05:00:00 12.1 0 Calma 6 Norte 0 -- -- 94
2018-09-07 04:00:00 12.7 0 Calma 6 Norte 0 -- -- 93
2018-09-07 03:00:00 13.1 3 Noroeste 7 Norte 0 -- -- 93
2018-09-07 02:00:00 13.9 2 Norte 9 Sudoeste 0 -- -- 91
2018-09-07 01:00:00 14.6 4 Noroeste 8 Norte 0 -- -- 90
2018-09-07 00:00:00 15.4 3 Noroeste 8 Norte 0 -- -- 89
2018-09-06 23:00:00 16.6 4 Noroeste 6 Norte 0 -- -- 86
2018-09-06 22:00:00 18.5 0 Calma 8 Norte 0 -- -- 81
2018-09-06 21:00:00 20.1 5 Norte 10 Norte 0 -- -- 77
2018-09-06 20:00:00 21.2 5 Norte 10 Norte 0 -- -- 74
2018-09-06 19:00:00 21.6 0 Calma 13 Norte 0 -- -- 76
2018-09-06 18:00:00 21.7 9 Norte 15 Norte 0 -- -- 72
2018-09-06 17:00:00 21.3 4 Norte 13 Norte 0 -- -- 79
2018-09-06 16:00:00 20.4 3 Norte 14 Norte 0.6 -- -- 84
2018-09-06 15:00:00 19 6 Noroeste 19 Norte 2.6 -- -- 85
2018-09-06 14:00:00 24.1 17 Oeste 27 Oeste 0 -- -- 51
2018-09-06 13:00:00 26 6 Sudeste 20 Este 0 -- -- 46
2018-09-06 12:00:00 24.1 6 Este 14 Este 0 -- -- 52
2018-09-06 11:00:00 20.9 3 Sudeste 9 Sudeste 0 -- -- 60
2018-09-06 10:00:00 15.9 0 Calma 3 Norte 0 -- -- 80
2018-09-06 09:00:00 12.2 0 Calma 4 Nordeste 0 -- -- 92
2018-09-06 08:00:00 11.7 0 Calma 5 Nordeste 0 -- -- 90
2018-09-06 07:00:00 12.4 0 Calma 7 Norte 0 -- -- 88
2018-09-06 06:00:00 13.3 3 Norte 7 Norte 0 -- -- 86
2018-09-06 05:00:00 13.8 2 Norte 6 Norte 0 -- -- 84
2018-09-06 04:00:00 14.6 3 Norte 8 Norte 0 -- -- 81
2018-09-06 03:00:00 15.3 3 Norte 5 Norte 0 -- -- 78
2018-09-06 02:00:00 16.8 0 Calma 7 Norte 0 -- -- 73
2018-09-06 01:00:00 18.5 4 Oeste 14 Oeste 0 -- -- 67
2018-09-06 00:00:00 19.9 5 Oeste 17 Oeste 0 -- -- 62
2018-09-05 23:00:00 20.8 6 Sudoeste 16 Sudoeste 0 -- -- 59
2018-09-05 22:00:00 19.5 2 Noroeste 8 Norte 0 -- -- 60
2018-09-05 21:00:00 21.7 4 Norte 9 Sudoeste 0 -- -- 53
2018-09-05 20:00:00 24.5 5 Sur 15 Sudeste 0 -- -- 45
2018-09-05 19:00:00 25 6 Sudoeste 23 Oeste 0 -- -- 44
2018-09-05 18:00:00 24.9 11 Oeste 27 Sudoeste 0 -- -- 46
2018-09-05 17:00:00 25.3 15 Oeste 28 Sudoeste 0 -- -- 45
2018-09-05 16:00:00 24.5 8 Oeste 26 Oeste 0 -- -- 48
2018-09-05 15:00:00 23.5 11 Sudoeste 27 Sudoeste 0 -- -- 53
2018-09-05 14:00:00 23.1 9 Sudoeste 22 Sudoeste 0 -- -- 55
2018-09-05 13:00:00 22 11 Sudoeste 20 Sur 0 -- -- 61
2018-09-05 12:00:00 21.3 10 Este 21 Este 0 -- -- 62
2018-09-05 11:00:00 19 5 Este 8 Este 0 -- -- 71
2018-09-05 10:00:00 16 0 Calma 4 Noroeste 0 -- -- 83
2018-09-05 09:00:00 13.7 0 Calma 2 Norte 0 -- -- 91
2018-09-05 08:00:00 13 2 Este 4 Este 0 -- -- 89
2018-09-05 07:00:00 12.7 0 Calma 3 Sudeste 0 -- -- 89
2018-09-05 06:00:00 13.4 0 Calma 5 Noroeste 0 -- -- 87
2018-09-05 05:00:00 14.3 0 Calma 5 Oeste 0 -- -- 83
2018-09-05 04:00:00 15.3 3 Noroeste 5 Norte 0 -- -- 81
2018-09-05 03:00:00 16.5 0 Calma 4 Norte 0 -- -- 77
2018-09-05 02:00:00 16.4 4 Norte 6 Norte 0 -- -- 76
2018-09-05 01:00:00 17.3 0 Calma 6 Este 0 -- -- 73
2018-09-05 00:00:00 18.4 3 Noroeste 4 Oeste 0 -- -- 70
2018-09-04 23:00:00 19.4 0 Calma 5 Norte 0 -- -- 64
2018-09-04 22:00:00 21.2 0 Calma 6 Norte 0 -- -- 57
2018-09-04 21:00:00 23.7 3 Noroeste 11 Sudoeste 0 -- -- 51
2018-09-04 20:00:00 27 5 Oeste 23 Oeste 0 -- -- 39
2018-09-04 19:00:00 27.3 12 Sudoeste 29 Oeste 0 -- -- 39
2018-09-04 18:00:00 27.7 11 Sudoeste 25 Oeste 0 -- -- 37
2018-09-04 17:00:00 28.2 8 Sudoeste 32 Oeste 0 -- -- 39
2018-09-04 16:00:00 28.1 9 Sur 32 Sudeste 0 -- -- 42
2018-09-04 15:00:00 26.7 8 Este 30 Este 0 -- -- 46
2018-09-04 14:00:00 25 6 Sudoeste 19 Sudoeste 0 -- -- 53
2018-09-04 13:00:00 24.7 9 Sudoeste 23 Este 0 -- -- 55
2018-09-04 12:00:00 24 8 Este 17 Este 0 -- -- 58
2018-09-04 11:00:00 21.4 10 Este 17 Este 0 -- -- 67
2018-09-04 10:00:00 17.9 3 Este 6 Sudeste 0 -- -- 85
2018-09-04 09:00:00 14.2 0 Calma 3 Este 0 -- -- 95
2018-09-04 08:00:00 13.5 2 Este 3 Norte 0 -- -- 92
2018-09-04 07:00:00 13.9 2 Noroeste 4 Este 0 -- -- 92
2018-09-04 06:00:00 14.2 0 Calma 4 Noroeste 0 -- -- 91
2018-09-04 05:00:00 14.8 3 Noroeste 5 Norte 0 -- -- 91
2018-09-04 04:00:00 15 0 Calma 4 Este 0 -- -- 88
2018-09-04 03:00:00 15.8 0 Calma 6 Norte 0 -- -- 85
2018-09-04 02:00:00 16.7 3 Noroeste 6 Noroeste 0 -- -- 84
2018-09-04 01:00:00 17.7 2 Noroeste 6 Norte 0 -- -- 81
2018-09-04 00:00:00 18.8 3 Noroeste 6 Norte 0 -- -- 77
2018-09-03 23:00:00 20.4 2 Noroeste 5 Norte 0 -- -- 71
2018-09-03 22:00:00 22.5 0 Calma 5 Norte 0 -- -- 63
2018-09-03 21:00:00 25.8 0 Calma 12 Sur 0 -- -- 53
2018-09-03 20:00:00 27.6 4 Sudoeste 19 Sudoeste 0 -- -- 47
2018-09-03 19:00:00 28.4 5 Sudoeste 24 Sudoeste 0 -- -- 45
2018-09-03 18:00:00 29.1 14 Oeste 28 Oeste 0 -- -- 43
2018-09-03 17:00:00 29.4 12 Sur 27 Sur 0 -- -- 41
2018-09-03 16:00:00 29.2 8 Sur 25 Oeste 0 -- -- 46
2018-09-03 15:00:00 27.7 12 Oeste 19 Sudoeste 0 -- -- 51
2018-09-03 14:00:00 28.7 5 Sudeste 27 Este 0 -- -- 51
2018-09-03 13:00:00 27.2 15 Este 29 Este 0 -- -- 57
2018-09-03 12:00:00 25.6 14 Este 28 Este 0 -- -- 64
2018-09-03 11:00:00 23.4 7 Este 12 Este 0 -- -- 72
2018-09-03 10:00:00 19.5 0 Calma 5 Este 0 -- -- 86
2018-09-03 09:00:00 17.2 0 Calma 7 Norte 0 -- -- 94
2018-09-03 08:00:00 16.7 0 Calma 6 Nordeste 0 -- -- 92
2018-09-03 07:00:00 17.5 0 Calma 5 Nordeste 0 -- -- 92
2018-09-03 06:00:00 17.7 3 Sudeste 6 Norte 0 -- -- 92
2018-09-03 05:00:00 17.5 4 Norte 8 Norte 0 -- -- 92
2018-09-03 04:00:00 17.7 4 Oeste 6 Noroeste 0 -- -- 92
2018-09-03 03:00:00 17.8 4 Noroeste 9 Norte 0.2 -- -- 91
2018-09-03 02:00:00 18.6 5 Noroeste 8 Oeste 0 -- -- 90
2018-09-03 01:00:00 19 4 Norte 8 Norte 0 -- -- 89
2018-09-03 00:00:00 19.3 5 Noroeste 11 Sudoeste 0 -- -- 88
2018-09-02 23:00:00 19.7 2 Norte 12 Oeste 0 -- -- 84
2018-09-02 22:00:00 21.8 9 Oeste 45 Oeste 1.6 -- -- 78
2018-09-02 21:00:00 28.2 3 Este 11 Sur 0.6 -- -- 58
2018-09-02 20:00:00 33.5 0 Calma 13 Oeste 0 -- -- 32
2018-09-02 19:00:00 34.9 3 Oeste 22 Sudoeste 0 -- -- 26
2018-09-02 18:00:00 35.2 5 Oeste 23 Oeste 0 -- -- 25
2018-09-02 17:00:00 35.4 9 Este 27 Sudoeste 0 -- -- 24
2018-09-02 16:00:00 35.5 7 Oeste 29 Este 0 -- -- 24
2018-09-02 15:00:00 34.7 12 Este 27 Este 0 -- -- 24
2018-09-02 14:00:00 33.9 11 Este 22 Este 0 -- -- 26
2018-09-02 13:00:00 32.5 11 Este 21 Este 0 -- -- 31
2018-09-02 12:00:00 31.1 8 Este 15 Este 0 -- -- 33
2018-09-02 11:00:00 26.8 3 Este 8 Este 0 -- -- 38
2018-09-02 10:00:00 21 0 Calma 3 Nordeste 0 -- -- 55
2018-09-02 09:00:00 16.4 0 Calma 5 Norte 0 -- -- 68
2018-09-02 08:00:00 15.7 3 Norte 6 Noroeste 0 -- -- 70
2018-09-02 07:00:00 16.4 0 Calma 5 Noroeste 0 -- -- 69
2018-09-02 06:00:00 17.5 2 Norte 6 Noroeste 0 -- -- 63
2018-09-02 05:00:00 17.9 4 Noroeste 6 Noroeste 0 -- -- 57
2018-09-02 04:00:00 19.2 3 Norte 8 Noroeste 0 -- -- 53
2018-09-02 03:00:00 20.7 5 Noroeste 12 Norte 0 -- -- 47
2018-09-02 02:00:00 20.4 6 Noroeste 12 Norte 0 -- -- 49
2018-09-02 01:00:00 20.4 4 Noroeste 9 Norte 0 -- -- 51
2018-09-02 00:00:00 21.5 3 Noroeste 7 Noroeste 0 -- -- 49
2018-09-01 23:00:00 23.5 4 Noroeste 8 Oeste 0 -- -- 43
2018-09-01 22:00:00 25.7 2 Sur 5 Norte 0 -- -- 44
2018-09-01 21:00:00 29.7 3 Noroeste 8 Norte 0 -- -- 34
2018-09-01 20:00:00 34.6 5 Oeste 13 Sur 0 -- -- 27
2018-09-01 19:00:00 35.9 6 Noroeste 17 Sudoeste 0 -- -- 22
2018-09-01 18:00:00 35.6 8 Noroeste 21 Noroeste 0 -- -- 23
2018-09-01 17:00:00 35.9 4 Oeste 23 Este 0 -- -- 22
2018-09-01 16:00:00 36 7 Oeste 26 Sudeste 0 -- -- 23
2018-09-01 15:00:00 35.5 8 Noroeste 18 Este 0 -- -- 24
2018-09-01 14:00:00 34.6 8 Este 22 Este 0 -- -- 24
2018-09-01 13:00:00 32.6 8 Este 17 Este 0 -- -- 27
2018-09-01 12:00:00 30 8 Este 14 Este 0 -- -- 31
2018-09-01 11:00:00 25.6 5 Este 10 Nordeste 0 -- -- 41
2018-09-01 10:00:00 19.7 0 Calma 4 Este 0 -- -- 55
2018-09-01 09:00:00 15.1 0 Calma 7 Noroeste 0 -- -- 68
2018-09-01 08:00:00 13.7 3 Noroeste 5 Noroeste 0 -- -- 72
2018-09-01 07:00:00 14.3 2 Norte 5 Noroeste 0 -- -- 68
2018-09-01 06:00:00 15.4 0 Calma 5 Noroeste 0 -- -- 66
2018-09-01 05:00:00 16.1 3 Noroeste 6 Norte 0 -- -- 61
2018-09-01 04:00:00 17.6 4 Norte 8 Norte 0 -- -- 55
2018-09-01 03:00:00 19.1 4 Noroeste 12 Oeste 0 -- -- 49
2018-09-01 02:00:00 20.3 6 Noroeste 18 Oeste 0 -- -- 47
2018-09-01 01:00:00 21.4 9 Oeste 15 Oeste 0 -- -- 45
2018-09-01 00:00:00 21.6 5 Noroeste 15 Oeste 0 -- -- 45
2018-08-31 23:00:00 23.4 6 Oeste 10 Oeste 0 -- -- 42
2018-08-31 22:00:00 25.9 4 Noroeste 8 Norte 0 -- -- 39
2018-08-31 21:00:00 30.7 0 Calma 12 Oeste 0 -- -- 31
2018-08-31 20:00:00 33.4 8 Oeste 18 Noroeste 0 -- -- 25
2018-08-31 19:00:00 34.7 5 Sudeste 21 Sudoeste 0 -- -- 25
2018-08-31 18:00:00 35.8 5 Sur 14 Sudoeste 0 -- -- 23
2018-08-31 17:00:00 34.6 9 Sudoeste 22 Oeste 0 -- -- 24
2018-08-31 16:00:00 35.2 6 Oeste 19 Sudoeste 0 -- -- 23
2018-08-31 15:00:00 34.2 9 Oeste 24 Sudoeste 0 -- -- 23
2018-08-31 14:00:00 33.2 6 Sudoeste 16 Nordeste 0 -- -- 28
2018-08-31 13:00:00 31.4 8 Este 14 Este 0 -- -- 32
2018-08-31 12:00:00 28.3 6 Este 11 Este 0 -- -- 37
2018-08-31 11:00:00 24.4 2 Sudeste 6 Este 0 -- -- 45
2018-08-31 10:00:00 19.3 0 Calma 3 Sudeste 0 -- -- 58
2018-08-31 09:00:00 15.1 0 Calma 5 Noroeste 0 -- -- 72
2018-08-31 08:00:00 14.1 0 Calma 4 Norte 0 -- -- 73
2018-08-31 07:00:00 14.8 0 Calma 5 Norte 0 -- -- 71
2018-08-31 06:00:00 16.6 3 Noroeste 8 Norte 0 -- -- 63
2018-08-31 05:00:00 17.6 4 Noroeste 8 Norte 0 -- -- 59
2018-08-31 04:00:00 18.2 4 Noroeste 11 Norte 0 -- -- 57
2018-08-31 03:00:00 19.1 5 Noroeste 10 Oeste 0 -- -- 54
2018-08-31 02:00:00 19 4 Norte 8 Noroeste 0 -- -- 54
2018-08-31 01:00:00 20.7 4 Noroeste 9 Noroeste 0 -- -- 50
2018-08-31 00:00:00 21.9 4 Norte 9 Norte 0 -- -- 46
2018-08-30 23:00:00 23.8 3 Oeste 9 Noroeste 0 -- -- 41
2018-08-30 22:00:00 25.4 4 Norte 9 Oeste 0 -- -- 39
2018-08-30 21:00:00 29.2 4 Noroeste 13 Oeste 0 -- -- 33
2018-08-30 20:00:00 32.7 6 Sudoeste 20 Sudoeste 0 -- -- 25
2018-08-30 19:00:00 33.6 9 Sudoeste 22 Sudoeste 0 -- -- 24
2018-08-30 18:00:00 33.9 10 Sudoeste 18 Sudoeste 0 -- -- 26
2018-08-30 17:00:00 34 5 Sudeste 21 Sudoeste 0 -- -- 25
2018-08-30 16:00:00 33.5 5 Este 21 Sudoeste 0 -- -- 24
2018-08-30 15:00:00 33.2 10 Sudoeste 25 Este 0 -- -- 25
2018-08-30 14:00:00 32 9 Este 21 Este 0 -- -- 30
2018-08-30 13:00:00 30.1 6 Este 12 Este 0 -- -- 34
2018-08-30 12:00:00 26.8 9 Este 15 Este 0 -- -- 44
2018-08-30 11:00:00 24.4 4 Este 10 Este 0 -- -- 49
2018-08-30 10:00:00 20.1 0 Calma 4 Norte 0 -- -- 62
2018-08-30 09:00:00 15.6 3 Norte 7 Norte 0 -- -- 76
2018-08-30 08:00:00 14.8 2 Noroeste 6 Norte 0 -- -- 76
2018-08-30 07:00:00 15.9 3 Norte 6 Noroeste 0 -- -- 73
2018-08-30 06:00:00 17 3 Norte 10 Norte 0 -- -- 68
2018-08-30 05:00:00 18 5 Norte 12 Noroeste 0 -- -- 65
2018-08-30 04:00:00 19.5 7 Norte 13 Noroeste 0 -- -- 59
2018-08-30 03:00:00 22.4 6 Oeste 22 Oeste 0 -- -- 50
2018-08-30 02:00:00 24.1 9 Oeste 23 Oeste 0 -- -- 45
2018-08-30 01:00:00 24.5 11 Sudoeste 39 Sudoeste 0 -- -- 44
2018-08-30 00:00:00 25.6 7 Sudoeste 24 Oeste 0 -- -- 42
2018-08-29 23:00:00 26.1 7 Oeste 22 Noroeste 0 -- -- 43
2018-08-29 22:00:00 24 4 Noroeste 9 Oeste 0 -- -- 48
2018-08-29 21:00:00 27.8 2 Norte 6 Norte 0 -- -- 38
2018-08-29 20:00:00 31.1 2 Nordeste 17 Nordeste 0 -- -- 31
2018-08-29 19:00:00 31.6 9 Sudeste 22 Este 0 -- -- 30
2018-08-29 18:00:00 31.8 7 Norte 28 Sudoeste 0 -- -- 32
2018-08-29 17:00:00 31.1 8 Sudoeste 22 Oeste 0 -- -- 35
2018-08-29 16:00:00 31.4 11 Sudoeste 20 Este 0 -- -- 36
2018-08-29 15:00:00 30.4 6 Sudoeste 21 Este 0 -- -- 35
2018-08-29 14:00:00 28.7 5 Oeste 14 Sudeste 0 -- -- 44
2018-08-29 13:00:00 26 7 Sudoeste 23 Oeste 0 -- -- 50
2018-08-29 12:00:00 23.8 14 Oeste 28 Oeste 0 -- -- 57
2018-08-29 11:00:00 21.7 14 Oeste 32 Oeste 0 -- -- 64
2018-08-29 10:00:00 20.1 16 Oeste 31 Oeste 0 -- -- 70
2018-08-29 09:00:00 18.9 15 Sudoeste 29 Sudoeste 0 -- -- 75
2018-08-29 08:00:00 18.5 13 Sudoeste 33 Oeste 0 -- -- 76
2018-08-29 07:00:00 18.1 14 Sudoeste 31 Sudoeste 0 -- -- 78
2018-08-29 06:00:00 18.5 15 Sudoeste 31 Sudoeste 0 -- -- 77
2018-08-29 05:00:00 18.8 16 Sudoeste 32 Oeste 0 -- -- 76
2018-08-29 04:00:00 19.2 13 Sudoeste 32 Sudoeste 0 -- -- 75
2018-08-29 03:00:00 20 13 Sudoeste 28 Sudoeste 0 -- -- 72
2018-08-29 02:00:00 21 14 Oeste 30 Oeste 0 -- -- 68
2018-08-29 01:00:00 22 12 Oeste 27 Sudoeste 0 -- -- 60
2018-08-29 00:00:00 23.4 13 Sudoeste 27 Sudoeste 0 -- -- 50
2018-08-28 23:00:00 24 5 Oeste 20 Oeste 0 -- -- 45
2018-08-28 22:00:00 25.1 11 Oeste 24 Oeste 0 -- -- 47
2018-08-28 21:00:00 27 4 Noroeste 19 Sudoeste 0 -- -- 37
2018-08-28 20:00:00 30.3 5 Oeste 21 Sur 0 -- -- 30
2018-08-28 19:00:00 30.9 9 Sudoeste 23 Sudoeste 0 -- -- 31
2018-08-28 18:00:00 31 11 Oeste 29 Oeste 0 -- -- 31
2018-08-28 17:00:00 31.1 9 Sur 30 Sudeste 0 -- -- 34
2018-08-28 16:00:00 30.9 9 Sudoeste 26 Oeste 0 -- -- 35
2018-08-28 15:00:00 29.5 12 Sudoeste 28 Oeste 0 -- -- 39
2018-08-28 14:00:00 28.4 11 Oeste 28 Sudoeste 0 -- -- 41
2018-08-28 13:00:00 26.9 10 Sudoeste 24 Oeste 0 -- -- 45
2018-08-28 12:00:00 25.3 10 Sudoeste 25 Sudoeste 0 -- -- 56
2018-08-28 11:00:00 24.2 9 Sudoeste 23 Sudoeste 0 -- -- 59
2018-08-28 10:00:00 24 6 Noroeste 15 Oeste 0 -- -- 56
2018-08-28 09:00:00 21 6 Noroeste 16 Noroeste 0 -- -- 69
2018-08-28 08:00:00 19.3 7 Norte 19 Sudoeste 0 -- -- 66
2018-08-28 07:00:00 17.7 5 Sudoeste 14 Sudoeste 0 -- -- 71
2018-08-28 06:00:00 15.6 2 Este 10 Norte 0 -- -- 67
2018-08-28 05:00:00 15.5 2 Noroeste 10 Norte 0 -- -- 65
2018-08-28 04:00:00 16.1 2 Este 9 Este 0 -- -- 60
2018-08-28 03:00:00 16 4 Sudoeste 10 Sudoeste 0 -- -- 59
2018-08-28 02:00:00 17.4 2 Norte 6 Norte 0 -- -- 53
2018-08-28 01:00:00 18.8 3 Noroeste 6 Oeste 0 -- -- 47
2018-08-28 00:00:00 19.8 3 Noroeste 6 Noroeste 0 -- -- 46
2018-08-27 23:00:00 22.6 4 Noroeste 8 Norte 0 -- -- 39
2018-08-27 22:00:00 24.2 5 Oeste 8 Norte 0 -- -- 38
2018-08-27 21:00:00 27.3 4 Noroeste 11 Sudoeste 0 -- -- 31
2018-08-27 20:00:00 30.9 5 Sudoeste 25 Oeste 0 -- -- 26
2018-08-27 19:00:00 34.1 11 Oeste 19 Oeste 0 -- -- 22
2018-08-27 18:00:00 34 3 Nordeste 14 Oeste 0 -- -- 21
2018-08-27 17:00:00 32.7 5 Noroeste 13 Noroeste 0 -- -- 20
2018-08-27 16:00:00 31.8 3 Sudeste 23 Oeste 0 -- -- 23
2018-08-27 15:00:00 32.4 7 Oeste 26 Sudoeste 0 -- -- 22
2018-08-27 14:00:00 33.4 13 Este 24 Este 0 -- -- 19
2018-08-27 13:00:00 33.5 10 Este 23 Este 0 -- -- 21
2018-08-27 12:00:00 29.8 9 Este 17 Este 0 -- -- 28
2018-08-27 11:00:00 24.9 5 Este 12 Este 0 -- -- 39
2018-08-27 10:00:00 19 0 Calma 3 Sur 0 -- -- 56
2018-08-27 09:00:00 12.7 0 Calma 4 Norte 0 -- -- 73
2018-08-27 08:00:00 11.1 0 Calma 3 Noroeste 0 -- -- 76
2018-08-27 07:00:00 11.6 2 Noroeste 3 Noroeste 0 -- -- 73
2018-08-27 06:00:00 12.4 0 Calma 4 Noroeste 0 -- -- 72
2018-08-27 05:00:00 13.3 2 Norte 5 Norte 0 -- -- 66
2018-08-27 04:00:00 14 2 Norte 6 Noroeste 0 -- -- 64
2018-08-27 03:00:00 14.9 3 Noroeste 5 Noroeste 0 -- -- 62
2018-08-27 02:00:00 15.8 4 Este 5 Norte 0 -- -- 58
2018-08-27 01:00:00 17.8 4 Norte 6 Norte 0 -- -- 48
2018-08-27 00:00:00 19.4 3 Norte 7 Norte 0 -- -- 43
2018-08-26 23:00:00 21.3 3 Noroeste 7 Norte 0 -- -- 39
2018-08-26 22:00:00 24.2 3 Noroeste 7 Noroeste 0 -- -- 35
2018-08-26 21:00:00 28.5 2 Noroeste 11 Oeste 0 -- -- 28
2018-08-26 20:00:00 33.5 9 Oeste 20 Sudoeste 0 -- -- 19
2018-08-26 19:00:00 34.5 8 Sur 19 Este 0 -- -- 19
2018-08-26 18:00:00 34.7 12 Sudeste 42 Sudeste 0 -- -- 19
2018-08-26 17:00:00 34.4 8 Sur 27 Sudoeste 0 -- -- 19
2018-08-26 16:00:00 34.3 7 Sudeste 21 Este 0 -- -- 19
2018-08-26 15:00:00 33.5 6 Sudeste 24 Este 0 -- -- 20
2018-08-26 14:00:00 32.2 9 Sudeste 26 Este 0 -- -- 24
2018-08-26 13:00:00 31 8 Este 15 Este 0 -- -- 24
2018-08-26 12:00:00 27.8 5 Este 9 Este 0 -- -- 31
2018-08-26 11:00:00 24 4 Este 9 Este 0 -- -- 37
2018-08-26 10:00:00 18.1 0 Calma 3 Noroeste 0 -- -- 52
2018-08-26 09:00:00 12.5 0 Calma 4 Este 0 -- -- 71
2018-08-26 08:00:00 10.9 0 Calma 4 Norte 0 -- -- 75
2018-08-26 07:00:00 11.7 0 Calma 3 Norte 0 -- -- 70
2018-08-26 06:00:00 12.6 0 Calma 5 Este 0 -- -- 68
2018-08-26 05:00:00 14 3 Noroeste 6 Noroeste 0 -- -- 60
2018-08-26 04:00:00 14.8 3 Noroeste 6 Noroeste 0 -- -- 57
2018-08-26 03:00:00 15.7 3 Norte 7 Norte 0 -- -- 55
2018-08-26 02:00:00 16.6 2 Noroeste 7 Noroeste 0 -- -- 51
2018-08-26 01:00:00 18 3 Noroeste 8 Norte 0 -- -- 48
2018-08-26 00:00:00 18.9 3 Noroeste 9 Norte 0 -- -- 44
2018-08-25 23:00:00 20.9 3 Noroeste 6 Norte 0 -- -- 41
2018-08-25 22:00:00 23.7 4 Noroeste 11 Sudoeste 0 -- -- 33
2018-08-25 21:00:00 27.5 7 Oeste 17 Oeste 0 -- -- 27
2018-08-25 20:00:00 31.4 6 Oeste 18 Oeste 0 -- -- 22
2018-08-25 19:00:00 32.1 11 Oeste 25 Oeste 0 -- -- 16
2018-08-25 18:00:00 32.5 10 Oeste 23 Oeste 0 -- -- 17
2018-08-25 17:00:00 32.7 10 Noroeste 27 Oeste 0 -- -- 17
2018-08-25 16:00:00 32 9 Oeste 25 Noroeste 0 -- -- 20
2018-08-25 15:00:00 31 10 Oeste 27 Oeste 0 -- -- 20
2018-08-25 14:00:00 30 10 Oeste 25 Oeste 0 -- -- 21
2018-08-25 13:00:00 28.2 9 Sudoeste 21 Oeste 0 -- -- 26
2018-08-25 12:00:00 27.4 7 Este 13 Este 0 -- -- 30
2018-08-25 11:00:00 24.3 12 Este 15 Este 0 -- -- 37
2018-08-25 10:00:00 21.7 6 Sur 20 Sudoeste 0 -- -- 43
2018-08-25 09:00:00 14.7 6 Norte 12 Norte 0 -- -- 60
2018-08-25 08:00:00 13.2 4 Norte 10 Norte 0 -- -- 63
2018-08-25 07:00:00 13.9 0 Calma 9 Norte 0 -- -- 62
2018-08-25 06:00:00 16.1 5 Noroeste 10 Noroeste 0 -- -- 54
2018-08-25 05:00:00 18 4 Norte 28 Oeste 0 -- -- 48
2018-08-25 04:00:00 21.5 12 Oeste 31 Oeste 0 -- -- 39
2018-08-25 03:00:00 20.3 5 Oeste 15 Oeste 0 -- -- 39
2018-08-25 02:00:00 20.7 8 Oeste 15 Noroeste 0 -- -- 39
2018-08-25 01:00:00 19 4 Oeste 12 Oeste 0 -- -- 43
2018-08-25 00:00:00 18.9 6 Oeste 12 Oeste 0 -- -- 37
2018-08-24 23:00:00 20.3 4 Noroeste 10 Norte 0 -- -- 34
2018-08-24 22:00:00 23.4 4 Noroeste 9 Noroeste 0 -- -- 30
2018-08-24 21:00:00 27.8 4 Noroeste 18 Sudoeste 0 -- -- 26
2018-08-24 20:00:00 32.9 5 Oeste 13 Nordeste 0 -- -- 17
2018-08-24 19:00:00 34 6 Noroeste 26 Norte 0 -- -- 15
2018-08-24 18:00:00 34.2 6 Noroeste 27 Norte 0 -- -- 16
2018-08-24 17:00:00 34.6 9 Noroeste 23 Oeste 0 -- -- 17
2018-08-24 16:00:00 34 9 Oeste 30 Oeste 0 -- -- 17
2018-08-24 15:00:00 33.3 15 Sudoeste 29 Oeste 0 -- -- 17
2018-08-24 14:00:00 33.1 7 Oeste 21 Nordeste 0 -- -- 21
2018-08-24 13:00:00 33.3 8 Sudeste 23 Este 0 -- -- 19
2018-08-24 12:00:00 31 6 Sudeste 14 Este 0 -- -- 23
2018-08-24 11:00:00 26.3 0 Calma 5 Sudoeste 0 -- -- 41
2018-08-24 10:00:00 20.7 0 Calma 6 Noroeste 0 -- -- 57
2018-08-24 09:00:00 16.3 2 Noroeste 5 Noroeste 0 -- -- 70
2018-08-24 08:00:00 15.3 2 Noroeste 6 Noroeste 0 -- -- 71
2018-08-24 07:00:00 16.3 2 Noroeste 6 Noroeste 0 -- -- 67
2018-08-24 06:00:00 17.3 0 Calma 7 Norte 0 -- -- 63
2018-08-24 05:00:00 19 6 Norte 9 Norte 0 -- -- 57
2018-08-24 04:00:00 21 4 Noroeste 8 Noroeste 0 -- -- 52
2018-08-24 03:00:00 22.9 6 Oeste 15 Oeste 0 -- -- 49
2018-08-24 02:00:00 25.1 10 Oeste 25 Oeste 0 -- -- 44
2018-08-24 01:00:00 26.8 10 Oeste 22 Sudoeste 0 -- -- 41
2018-08-24 00:00:00 25.3 9 Oeste 20 Oeste 0 -- -- 41
2018-08-23 23:00:00 25 9 Oeste 17 Oeste 0 -- -- 39
2018-08-23 22:00:00 25.4 5 Oeste 11 Noroeste 0 -- -- 40
2018-08-23 21:00:00 28.7 3 Noroeste 8 Oeste 0 -- -- 32
2018-08-23 20:00:00 33.4 6 Oeste 22 Oeste 0 -- -- 25
2018-08-23 19:00:00 33.9 12 Sudoeste 24 Sudoeste 0 -- -- 24
2018-08-23 18:00:00 33.6 11 Sur 22 Sudeste 0 -- -- 30
2018-08-23 17:00:00 34.1 9 Este 25 Este 0 -- -- 27
2018-08-23 16:00:00 33.7 12 Sudeste 27 Este 0 -- -- 29
2018-08-23 15:00:00 34 11 Oeste 23 Noroeste 0 -- -- 27
2018-08-23 14:00:00 33.5 7 Este 24 Este 0 -- -- 30
2018-08-23 13:00:00 30.7 13 Este 19 Este 0 -- -- 37
2018-08-23 12:00:00 28.2 8 Este 13 Este 0 -- -- 39
2018-08-23 11:00:00 23.7 2 Sudeste 6 Este 0 -- -- 52
2018-08-23 10:00:00 18.4 0 Calma 3 Nordeste 0 -- -- 67
2018-08-23 09:00:00 14.4 0 Calma 5 Este 0 -- -- 84
2018-08-23 08:00:00 13 2 Norte 4 Este 0 -- -- 84
2018-08-23 07:00:00 13.4 0 Calma 5 Norte 0 -- -- 83
2018-08-23 06:00:00 13.8 0 Calma 4 Norte 0.2 -- -- 83
2018-08-23 05:00:00 14.5 2 Noroeste 4 Norte 0 -- -- 80
2018-08-23 04:00:00 15.4 3 Norte 6 Noroeste 0 -- -- 76
2018-08-23 03:00:00 16.8 3 Noroeste 9 Oeste 0 -- -- 71
2018-08-23 02:00:00 17.2 2 Noroeste 6 Norte 0 -- -- 72
2018-08-23 01:00:00 19.1 2 Noroeste 9 Oeste 0 -- -- 68
2018-08-23 00:00:00 20.7 5 Noroeste 10 Norte 0 -- -- 60